Airfield :
LOGIN :

Register | Disclaimer

   EN    FR    IT 

 










Legend :    VFR   Marginal VFR   IFR   Intensive IFR   Very Intensive IFR
Visi :
Ceiling :
>= 8 km
>= 3000ft
5 to 8 km
1000 to 3000 ft
1500m to 5 km
500 to 1000 ft
800 to 1500m
200 to 500 ft
< 800m
< 200 ft
Symbols :   Thunderstorms  Fog  Heavy snow  Heavy precipitations  Wind > 20 kt
SIGMETs :     Misc.  Thunderstorms  Icing  Turbulence  Mountain Waves  Volcanic Ashes






- Airport Elevation : 285 ft
- IATA code : OZP


LEMO - Sevilla Moron

CURRENT METAR :
  • 110300Z 18006KT 9999 FEW020 SCT034 13/13 Q1014 NOSIG

EXPIRED METARs :
  • 110230Z 19007KT 9999 SCT018 SCT035 13/13 Q1014 NOSIG
  • 110200Z 19006KT 9999 FEW035 12/12 Q1014 NOSIG
  • 110130Z 19006KT CAVOK 12/12 Q1014 NOSIG
  • 110100Z 20007KT CAVOK 13/13 Q1014 NOSIG
  • 110030Z 20007KT 170V250 CAVOK 13/13 Q1014 NOSIG

TAF TAF LEMO
Valid from the 11 at 03:00 until the 12 at 03:00 UTC


110200Z 1103/1203 18008KT 9999 FEW030 TX23/1115Z TN13/1106Z
PROB30
TEMPO 1103/1115 4000 SHRA SCT035CB
BECMG 1108/1110 25010KT
BECMG 1120/1122 VRB03KT



MET'MAP, your aeronautical weather chart ! - Copyright ORBIFLY December 2007 - Disclaimer

ORBIFLY MET'MAP TEAM :

Programming & Development : Alexandra Zaïnal
Concept & original design : Baudouin d'Aumeries
Assistance for programming : Marc-Olivier Méhu
Technical & hardware support : Manuel Goepfert

Contact : metmap@orbifly.com




SOURCES & CREDITS :

   NOAA